Time;durP1;ratioP1;P1;durP2;ratioP2;P2;SDS_P1;SDS_P2;PMS_P1;PMS_P2;Temp;Humidity;BMP_temperature;BMP_pressure;BME280_temperature;BME280_humidity;BME280_pressure;Samples;Min_cycle;Max_cycle;Signal;HPM_P1;HPM_P2
2023/06/06 00:00:04;;;;;;;7.55;2.00;;;;;;;17.01;48.61;94238.25;5144940;27;20023;-77
2023/06/06 00:02:30;;;;;;;7.57;2.30;;;;;;;16.96;48.97;94243.13;5144928;27;20083;-77
2023/06/06 00:04:57;;;;;;;4.10;1.95;;;;;;;16.84;49.43;94233.97;5144788;27;20027;-77
2023/06/06 00:07:22;;;;;;;6.63;2.20;;;;;;;16.76;49.37;94234.88;5144735;27;20019;-77
2023/06/06 00:09:48;;;;;;;5.75;2.25;;;;;;;16.69;49.34;94231.19;5144889;27;20053;-77
2023/06/06 00:12:13;;;;;;;5.80;1.70;;;;;;;16.64;49.19;94227.63;5144812;27;20060;-77
2023/06/06 00:14:40;;;;;;;3.95;1.67;;;;;;;16.63;49.28;94226.06;5144793;27;20046;-75
2023/06/06 00:17:09;;;;;;;7.78;2.00;;;;;;;16.59;49.09;94225.19;5144881;27;20027;-76
2023/06/06 00:19:40;;;;;;;5.82;2.10;;;;;;;16.55;48.84;94221.63;5144537;27;20247;-76
2023/06/06 00:22:07;;;;;;;4.10;1.92;;;;;;;16.55;49.23;94224.31;5144693;27;20030;-76
2023/06/06 00:24:32;;;;;;;4.55;2.00;;;;;;;16.46;49.44;94223.66;5144552;27;20026;-76
2023/06/06 00:26:58;;;;;;;4.85;2.05;;;;;;;16.44;49.18;94221.31;5144452;27;20022;-76
2023/06/06 00:29:23;;;;;;;3.75;1.90;;;;;;;16.37;48.88;94226.50;5125993;27;20020;-76
2023/06/06 00:31:49;;;;;;;6.53;1.80;;;;;;;16.33;49.71;94230.97;5144322;27;20038;-76
2023/06/06 00:34:15;;;;;;;6.43;1.80;;;;;;;16.33;49.15;94219.44;5125940;27;20328;-76
2023/06/06 00:36:40;;;;;;;6.82;1.80;;;;;;;16.31;49.65;94229.75;5144425;27;20019;-76
2023/06/06 00:39:06;;;;;;;5.15;2.80;;;;;;;16.26;49.49;94220.00;5144527;27;20317;-76
2023/06/06 00:41:32;;;;;;;4.30;1.85;;;;;;;16.25;49.82;94216.53;5143957;27;20438;-76
2023/06/06 00:43:57;;;;;;;4.45;2.00;;;;;;;16.17;49.81;94217.44;5144370;27;20023;-76
2023/06/06 00:46:23;;;;;;;8.80;2.13;;;;;;;16.10;49.90;94211.88;5143758;27;20320;-76
2023/06/06 00:48:49;;;;;;;6.72;1.77;;;;;;;16.07;49.91;94217.91;5144026;27;20202;-77
2023/06/06 00:51:16;;;;;;;5.00;2.03;;;;;;;16.02;50.12;94227.00;5125615;27;20015;-77
2023/06/06 00:53:42;;;;;;;3.88;1.70;;;;;;;16.00;49.94;94217.72;5143923;27;20218;-77
2023/06/06 00:56:09;;;;;;;7.07;2.25;;;;;;;15.97;50.07;94219.16;5144105;27;20047;-77
2023/06/06 00:58:35;;;;;;;9.55;2.00;;;;;;;15.95;50.06;94226.78;5144010;27;20025;-77
2023/06/06 01:01:01;;;;;;;3.40;1.73;;;;;;;15.93;49.55;94233.63;5143791;27;20023;-77
2023/06/06 01:03:29;;;;;;;3.35;1.60;;;;;;;15.90;49.55;94226.25;5143665;27;20068;-77
2023/06/06 01:05:55;;;;;;;8.15;2.25;;;;;;;15.86;49.48;94228.03;5143779;27;20019;-77
2023/06/06 01:08:23;;;;;;;4.05;1.92;;;;;;;15.76;49.72;94230.03;5143707;27;20019;-77
2023/06/06 01:10:51;;;;;;;4.32;1.80;;;;;;;15.65;50.37;94235.06;5143890;27;20019;-77
2023/06/06 01:13:23;;;;;;;5.45;2.17;;;;;;;15.58;49.81;94236.72;5143756;27;20085;-77
2023/06/06 01:15:57;;;;;;;4.30;2.08;;;;;;;15.56;49.85;94237.06;5143635;27;20042;-78
2023/06/06 01:18:24;;;;;;;4.60;1.83;;;;;;;15.50;50.61;94237.63;5125396;28;20023;-77
2023/06/06 01:20:51;;;;;;;6.35;2.30;;;;;;;15.41;49.86;94235.03;5143719;28;20023;-77
2023/06/06 01:23:17;;;;;;;6.47;1.65;;;;;;;15.35;51.24;94242.53;5143428;28;20123;-77
2023/06/06 01:25:47;;;;;;;4.50;1.90;;;;;;;15.30;50.16;94247.31;5143605;28;20030;-77
2023/06/06 01:28:27;;;;;;;4.10;1.77;;;;;;;15.24;49.84;94249.44;5143528;28;20020;-77
2023/06/06 01:30:53;;;;;;;4.30;1.85;;;;;;;15.23;49.80;94239.81;5140609;28;20031;-77
2023/06/06 01:33:39;;;;;;;3.97;2.63;;;;;;;15.20;49.66;94240.47;5142785;28;20217;-77
2023/06/06 01:36:29;;;;;;;5.93;1.83;;;;;;;15.16;50.06;94247.63;5142609;28;20041;-77
2023/06/06 01:39:07;;;;;;;3.88;1.80;;;;;;;15.17;50.39;94246.53;5143245;28;20147;-78
2023/06/06 01:41:36;;;;;;;4.97;1.85;;;;;;;15.09;50.91;94248.19;5125000;28;20062;-78
2023/06/06 01:44:06;;;;;;;3.47;1.13;;;;;;;15.05;51.02;94241.91;5143391;28;20029;-78
2023/06/06 01:46:33;;;;;;;8.73;1.58;;;;;;;15.03;51.47;94249.50;5143534;28;20086;-77
2023/06/06 01:48:58;;;;;;;5.72;2.22;;;;;;;14.98;52.16;94245.13;5143447;28;20023;-77
2023/06/06 01:51:28;;;;;;;2.97;1.50;;;;;;;15.00;53.74;94247.47;5143305;28;20226;-77
2023/06/06 01:53:58;;;;;;;7.55;2.90;;;;;;;14.97;52.69;94240.09;5143066;28;20012;-77
2023/06/06 01:56:25;;;;;;;6.55;1.52;;;;;;;14.85;52.50;94240.81;5143410;27;20023;-77
2023/06/06 01:58:51;;;;;;;4.35;1.77;;;;;;;14.77;52.75;94241.69;5146549;27;20026;-77
2023/06/06 02:01:17;;;;;;;7.20;1.73;;;;;;;14.83;52.67;94256.47;5147252;27;20023;-76
2023/06/06 02:03:42;;;;;;;3.58;1.70;;;;;;;14.89;52.60;94247.09;5128829;27;20045;-77
2023/06/06 02:06:08;;;;;;;4.03;1.73;;;;;;;14.95;51.77;94253.84;5147422;27;20079;-78
2023/06/06 02:08:33;;;;;;;6.88;1.77;;;;;;;14.95;51.49;94248.47;5147220;27;20213;-78
2023/06/06 02:10:59;;;;;;;3.50;1.35;;;;;;;15.01;51.43;94257.09;5147048;27;20034;-78
2023/06/06 02:13:26;;;;;;;8.95;1.63;;;;;;;15.02;51.65;94251.41;5147179;27;20019;-78
2023/06/06 02:15:51;;;;;;;6.03;1.70;;;;;;;15.11;52.39;94256.69;5146998;27;20027;-78
2023/06/06 02:18:17;;;;;;;7.43;1.58;;;;;;;15.10;51.57;94249.75;5128631;27;20344;-78
2023/06/06 02:20:42;;;;;;;4.53;1.48;;;;;;;15.12;51.05;94260.16;5146896;27;20213;-78
2023/06/06 02:23:08;;;;;;;8.07;1.75;;;;;;;15.15;50.64;94267.56;5146994;27;20250;-78
2023/06/06 02:25:33;;;;;;;3.15;1.42;;;;;;;15.17;50.37;94268.78;5128491;27;20336;-78
2023/06/06 02:27:59;;;;;;;3.03;1.45;;;;;;;15.17;50.46;94273.38;5128463;27;20031;-78
2023/06/06 02:30:24;;;;;;;6.57;1.73;;;;;;;15.19;51.49;94276.50;5146666;27;20288;-78
2023/06/06 02:32:50;;;;;;;7.75;1.35;;;;;;;15.12;50.76;94270.88;5146654;27;20050;-78
2023/06/06 02:35:18;;;;;;;4.07;1.50;;;;;;;15.08;50.35;94273.44;5128146;27;20031;-78
2023/06/06 02:37:44;;;;;;;2.75;1.17;;;;;;;14.98;50.10;94271.97;5146733;27;20255;-77
2023/06/06 02:40:11;;;;;;;4.00;1.73;;;;;;;14.97;50.05;94273.06;5146576;27;20027;-77
2023/06/06 02:42:38;;;;;;;7.00;1.70;;;;;;;14.97;50.49;94281.13;5146546;27;20031;-77
2023/06/06 02:45:05;;;;;;;5.80;1.60;;;;;;;14.99;50.96;94280.81;5146375;27;20027;-77
2023/06/06 02:47:31;;;;;;;4.40;1.67;;;;;;;14.93;51.73;94282.91;5146325;27;20023;-77
2023/06/06 02:49:56;;;;;;;6.95;2.05;;;;;;;14.93;53.26;94277.53;5146104;27;20057;-77
2023/06/06 02:52:23;;;;;;;8.43;1.77;;;;;;;14.91;54.39;94281.66;5146455;27;20027;-77
2023/06/06 02:54:48;;;;;;;5.80;2.17;;;;;;;14.88;55.41;94291.16;5146279;27;20069;-76
2023/06/06 02:57:13;;;;;;;3.00;1.50;;;;;;;14.84;57.11;94282.22;5146301;27;20031;-77
2023/06/06 02:59:39;;;;;;;5.22;2.45;;;;;;;14.86;58.71;94285.34;5146180;27;20027;-77
2023/06/06 03:02:05;;;;;;;7.60;2.58;;;;;;;14.84;59.40;94282.22;5146115;27;20030;-76
2023/06/06 03:04:31;;;;;;;6.75;2.70;;;;;;;14.79;59.79;94293.91;5145992;27;20305;-76
2023/06/06 03:06:56;;;;;;;4.80;2.25;;;;;;;14.75;60.49;94292.22;5146023;27;20023;-77
2023/06/06 03:09:24;;;;;;;10.32;2.65;;;;;;;14.66;61.20;94286.16;5145441;27;20023;-77
2023/06/06 03:11:49;;;;;;;10.40;2.58;;;;;;;14.57;61.83;94288.88;5145753;27;20337;-76
2023/06/06 03:14:15;;;;;;;5.65;3.00;;;;;;;14.53;62.40;94294.09;5145750;27;20027;-77
2023/06/06 03:16:41;;;;;;;6.40;2.50;;;;;;;14.47;62.15;94298.09;5145821;27;20051;-77
2023/06/06 03:19:07;;;;;;;7.22;2.28;;;;;;;14.42;62.28;94295.59;5146000;27;20078;-76
2023/06/06 03:21:36;;;;;;;7.72;2.95;;;;;;;14.43;62.28;94299.84;5145609;27;20325;-76
2023/06/06 03:24:03;;;;;;;11.90;2.97;;;;;;;14.46;62.06;94304.56;5145394;27;20217;-76
2023/06/06 03:26:28;;;;;;;9.07;3.20;;;;;;;14.50;62.19;94296.66;5145507;27;20069;-76
2023/06/06 03:28:56;;;;;;;3.92;2.17;;;;;;;14.52;62.43;94302.47;5145419;27;20086;-76
2023/06/06 03:31:23;;;;;;;4.45;2.25;;;;;;;14.55;62.46;94293.75;5127159;27;20065;-76
2023/06/06 03:33:50;;;;;;;5.35;2.40;;;;;;;14.58;62.15;94293.94;5145453;27;20056;-76
2023/06/06 03:36:16;;;;;;;10.75;3.00;;;;;;;14.62;62.03;94291.38;5145470;27;20055;-76
2023/06/06 03:38:42;;;;;;;6.15;2.83;;;;;;;14.70;62.78;94298.56;5145280;27;20331;-76
2023/06/06 03:41:08;;;;;;;8.73;2.55;;;;;;;14.69;61.56;94293.53;5145397;27;20015;-76
2023/06/06 03:43:35;;;;;;;10.95;2.53;;;;;;;14.67;61.74;94295.75;5145073;27;20019;-76
2023/06/06 03:46:01;;;;;;;10.65;2.58;;;;;;;14.63;61.62;94301.78;5144997;27;20027;-76
2023/06/06 03:48:26;;;;;;;5.07;2.10;;;;;;;14.62;60.61;94296.75;5145181;27;20015;-76
2023/06/06 03:50:52;;;;;;;3.88;2.08;;;;;;;14.66;60.09;94302.25;5145173;27;20092;-76
2023/06/06 03:53:18;;;;;;;7.57;2.20;;;;;;;14.70;59.87;94305.84;5145017;27;20306;-75
2023/06/06 03:55:47;;;;;;;10.02;2.63;;;;;;;14.73;59.73;94307.84;5144929;27;20025;-76
2023/06/06 03:58:15;;;;;;;8.93;2.25;;;;;;;14.71;59.61;94304.72;5144828;27;20027;-77
2023/06/06 04:00:43;;;;;;;6.25;2.60;;;;;;;14.78;59.27;94307.66;5144934;27;20045;-77
2023/06/06 04:03:08;;;;;;;8.48;1.75;;;;;;;14.84;58.29;94303.69;5144681;27;20313;-77
2023/06/06 04:05:35;;;;;;;6.95;2.38;;;;;;;14.91;57.87;94305.81;5144685;27;20090;-76
2023/06/06 04:08:00;;;;;;;5.03;2.13;;;;;;;14.91;57.18;94306.59;5144860;27;20182;-77
2023/06/06 04:10:26;;;;;;;6.30;1.85;;;;;;;15.01;57.08;94308.88;5144722;27;20205;-77
2023/06/06 04:12:51;;;;;;;8.25;2.05;;;;;;;15.04;55.54;94307.44;5144570;27;20015;-77
2023/06/06 04:15:17;;;;;;;8.95;1.83;;;;;;;15.06;55.21;94305.19;5144546;27;20019;-77
2023/06/06 04:17:42;;;;;;;4.25;1.75;;;;;;;15.07;56.05;94300.63;5144446;27;20305;-77
2023/06/06 04:20:08;;;;;;;10.30;1.88;;;;;;;15.16;56.52;94307.50;5143672;27;20251;-77
2023/06/06 04:22:38;;;;;;;4.28;1.50;;;;;;;15.31;55.76;94310.66;5144482;27;20047;-77
2023/06/06 04:25:04;;;;;;;7.80;2.10;;;;;;;15.39;55.97;94318.63;5144430;27;20212;-78
2023/06/06 04:27:31;;;;;;;8.75;2.13;;;;;;;15.45;54.62;94309.25;5144447;27;20072;-78
2023/06/06 04:29:57;;;;;;;13.05;2.38;;;;;;;15.52;54.72;94307.91;5144363;27;20098;-78
2023/06/06 04:32:24;;;;;;;6.90;1.92;;;;;;;15.61;53.68;94308.59;5144334;27;20060;-76
2023/06/06 04:34:57;;;;;;;7.30;2.00;;;;;;;15.64;53.50;94308.72;5144031;27;20019;-77
2023/06/06 04:37:23;;;;;;;14.65;2.17;;;;;;;15.77;53.39;94311.44;5144184;27;20131;-77
2023/06/06 04:39:52;;;;;;;14.13;2.72;;;;;;;15.86;54.02;94306.00;5143741;27;20310;-77
2023/06/06 04:42:19;;;;;;;7.00;2.42;;;;;;;15.91;54.41;94305.75;5144020;27;20088;-77
2023/06/06 04:44:45;;;;;;;5.32;1.88;;;;;;;16.02;53.50;94304.19;5143801;27;20026;-77
2023/06/06 04:47:12;;;;;;;8.30;2.63;;;;;;;16.10;53.59;94308.69;5144126;27;20022;-76
2023/06/06 04:49:40;;;;;;;6.88;2.28;;;;;;;16.13;52.49;94310.69;5143875;27;20221;-76
2023/06/06 04:52:10;;;;;;;7.63;2.55;;;;;;;16.10;52.38;94306.00;5144106;27;20046;-76
2023/06/06 04:54:40;;;;;;;7.75;1.98;;;;;;;16.14;53.15;94303.38;5143917;27;20025;-76
2023/06/06 04:57:15;;;;;;;5.45;2.28;;;;;;;16.35;53.05;94304.06;5144125;27;20064;-77
2023/06/06 04:59:42;;;;;;;7.47;2.30;;;;;;;16.45;51.74;94303.59;5143460;27;20043;-77
2023/06/06 05:02:07;;;;;;;5.20;2.15;;;;;;;16.42;51.69;94300.78;5142726;27;20389;-77
2023/06/06 05:04:33;;;;;;;9.95;2.47;;;;;;;16.57;51.90;94304.69;5142676;27;20022;-77
2023/06/06 05:06:59;;;;;;;9.50;2.30;;;;;;;16.73;52.26;94296.69;5142186;27;20479;-76
2023/06/06 05:09:26;;;;;;;4.78;2.17;;;;;;;16.91;53.21;94311.44;5141815;27;20015;-77
2023/06/06 05:11:52;;;;;;;6.18;2.33;;;;;;;17.00;53.05;94298.66;5141868;27;20078;-77
2023/06/06 05:14:23;;;;;;;7.65;2.50;;;;;;;17.17;51.55;94310.25;5123394;27;20015;-77
2023/06/06 05:16:53;;;;;;;12.13;2.47;;;;;;;17.30;50.67;94309.06;5141626;27;20055;-77
2023/06/06 05:19:19;;;;;;;15.93;2.90;;;;;;;17.44;50.16;94309.44;5141793;27;20019;-78
2023/06/06 05:21:45;;;;;;;18.63;2.78;;;;;;;17.57;47.94;94306.69;5142675;28;20011;-78
2023/06/06 05:24:11;;;;;;;9.63;1.63;;;;;;;17.69;47.13;94312.00;5143267;28;20233;-77
2023/06/06 05:26:36;;;;;;;2.80;1.30;;;;;;;17.79;46.47;94306.09;5143748;28;20213;-77
2023/06/06 05:29:02;;;;;;;8.73;2.03;;;;;;;17.86;46.47;94312.81;5125263;28;20022;-77
2023/06/06 05:31:27;;;;;;;6.03;2.00;;;;;;;17.96;46.10;94310.38;5144501;27;20030;-77
2023/06/06 05:33:53;;;;;;;9.82;2.22;;;;;;;18.06;45.69;94311.78;5147691;27;20015;-77
2023/06/06 05:36:19;;;;;;;8.30;2.80;;;;;;;18.14;44.48;94310.03;5147656;27;20035;-77
2023/06/06 05:38:45;;;;;;;9.80;2.00;;;;;;;18.28;44.94;94313.06;5129197;27;20334;-78
2023/06/06 05:41:12;;;;;;;19.40;2.40;;;;;;;18.42;45.23;94312.59;5147625;27;20019;-77
2023/06/06 05:43:37;;;;;;;3.40;1.30;;;;;;;18.51;45.13;94307.78;5147723;27;20212;-80
2023/06/06 05:46:03;;;;;;;7.25;1.45;;;;;;;18.54;45.86;94314.38;5147433;27;20015;-81
2023/06/06 05:48:29;;;;;;;14.57;2.63;;;;;;;18.61;45.37;94309.94;5147351;27;20019;-81
2023/06/06 05:50:54;;;;;;;9.68;2.03;;;;;;;18.70;45.07;94312.41;5147250;27;20019;-81
2023/06/06 05:53:21;;;;;;;10.35;2.20;;;;;;;18.74;45.13;94315.97;5129020;27;20202;-80
2023/06/06 05:55:47;;;;;;;7.47;2.15;;;;;;;18.77;44.57;94309.09;5146997;27;20015;-80
2023/06/06 05:58:13;;;;;;;5.38;1.88;;;;;;;18.81;44.97;94310.00;5147195;27;20213;-80
2023/06/06 06:00:38;;;;;;;16.45;2.70;;;;;;;18.83;45.36;94307.72;5128941;27;20031;-80
2023/06/06 06:03:04;;;;;;;5.30;2.22;;;;;;;18.84;45.44;94307.34;5128722;27;20117;-80
2023/06/06 06:05:31;;;;;;;21.23;2.88;;;;;;;18.90;45.21;94304.38;5147029;27;20355;-80
2023/06/06 06:08:00;;;;;;;6.65;1.92;;;;;;;18.99;45.04;94296.81;5147132;27;20313;-80
2023/06/06 06:10:27;;;;;;;6.97;1.70;;;;;;;19.03;44.75;94303.88;5147086;27;20027;-80
2023/06/06 06:12:53;;;;;;;8.65;2.88;;;;;;;19.02;46.57;94296.91;5146810;27;20313;-72
2023/06/06 06:15:18;;;;;;;11.55;2.03;;;;;;;19.03;47.50;94301.19;5147045;27;20029;-74
2023/06/06 06:17:44;;;;;;;7.00;2.05;;;;;;;19.13;46.33;94301.75;5147151;27;20084;-74
2023/06/06 06:20:10;;;;;;;8.98;2.28;;;;;;;19.20;46.19;94301.88;5146988;27;20034;-74
2023/06/06 06:22:36;;;;;;;16.73;1.85;;;;;;;19.27;46.33;94303.94;5147138;27;20039;-73
2023/06/06 06:25:03;;;;;;;5.15;2.28;;;;;;;19.31;45.64;94297.44;5147004;27;20086;-73
2023/06/06 06:27:30;;;;;;;9.50;1.77;;;;;;;19.37;47.77;94300.66;5146874;27;20019;-73
2023/06/06 06:29:56;;;;;;;9.68;2.08;;;;;;;19.42;46.81;94297.69;5146900;27;20231;-73
2023/06/06 06:32:22;;;;;;;9.80;2.67;;;;;;;19.53;45.97;94295.94;5146822;27;20015;-73
2023/06/06 06:34:48;;;;;;;15.80;2.05;;;;;;;19.64;46.65;94299.63;5146783;27;20092;-73
2023/06/06 06:37:13;;;;;;;20.60;3.60;;;;;;;19.69;45.24;94290.41;5128495;27;20026;-74
2023/06/06 06:39:38;;;;;;;7.30;2.10;;;;;;;19.70;44.88;94292.00;5146958;27;20039;-73
2023/06/06 06:42:04;;;;;;;13.32;1.80;;;;;;;19.82;44.74;94299.16;5128304;27;20159;-73
2023/06/06 06:44:30;;;;;;;11.02;2.15;;;;;;;19.90;44.39;94295.44;5145882;27;20026;-73
2023/06/06 06:46:55;;;;;;;13.88;1.92;;;;;;;19.95;43.70;94292.44;5146525;27;20057;-73
2023/06/06 06:49:21;;;;;;;10.32;2.25;;;;;;;20.06;43.82;94289.13;5146443;27;20286;-73
2023/06/06 06:51:47;;;;;;;6.93;2.08;;;;;;;20.14;43.30;94288.84;5146367;27;20026;-73
2023/06/06 06:54:13;;;;;;;10.48;2.30;;;;;;;20.22;43.12;94292.47;5146166;27;20019;-73
2023/06/06 06:56:41;;;;;;;11.43;1.95;;;;;;;20.29;43.19;94289.06;5146314;27;20023;-73
2023/06/06 06:59:07;;;;;;;11.55;1.88;;;;;;;20.32;43.11;94289.13;5144960;27;20026;-73
2023/06/06 07:01:33;;;;;;;9.48;2.05;;;;;;;20.41;42.86;94286.94;5145630;27;20090;-74
2023/06/06 07:03:59;;;;;;;8.35;1.95;;;;;;;20.50;42.34;94289.38;5127609;27;20221;-74
2023/06/06 07:06:25;;;;;;;16.10;2.03;;;;;;;20.58;42.86;94295.69;5145916;27;20086;-73
2023/06/06 07:08:52;;;;;;;9.57;1.80;;;;;;;20.65;42.87;94295.81;5145715;27;20220;-73
2023/06/06 07:11:18;;;;;;;3.53;2.30;;;;;;;20.58;41.94;94296.50;5145508;27;20336;-73
2023/06/06 07:13:43;;;;;;;8.02;1.98;;;;;;;20.72;42.75;94295.09;5145908;27;20090;-74
2023/06/06 07:16:10;;;;;;;9.85;1.73;;;;;;;20.81;43.49;94293.69;5146098;27;20019;-73
2023/06/06 07:18:35;;;;;;;6.10;1.70;;;;;;;20.89;43.66;94297.28;5127715;27;20078;-73
2023/06/06 07:21:00;;;;;;;7.13;2.15;;;;;;;20.89;44.71;94288.38;5145789;27;20043;-73
2023/06/06 07:23:26;;;;;;;11.70;2.30;;;;;;;20.99;42.35;94291.22;5145556;27;20047;-73
2023/06/06 07:25:52;;;;;;;7.22;1.83;;;;;;;21.04;41.33;94282.78;5145896;27;20029;-74
2023/06/06 07:28:18;;;;;;;9.95;2.95;;;;;;;21.08;43.59;94290.16;5145818;27;20027;-73
2023/06/06 07:30:44;;;;;;;5.32;2.55;;;;;;;21.16;43.64;94289.84;5145736;27;20209;-85
2023/06/06 07:33:09;;;;;;;9.52;1.98;;;;;;;21.25;41.57;94292.28;5145601;27;20324;-79
2023/06/06 07:35:36;;;;;;;4.95;2.05;;;;;;;21.12;41.31;94289.03;5145733;27;20120;-77
2023/06/06 07:38:02;;;;;;;5.75;1.92;;;;;;;21.19;42.84;94291.06;5145638;27;20087;-77
2023/06/06 07:40:28;;;;;;;7.10;2.33;;;;;;;21.15;42.32;94291.03;5145602;27;20027;-78
2023/06/06 07:42:54;;;;;;;7.70;1.85;;;;;;;21.27;42.14;94286.47;5127163;27;20221;-79
2023/06/06 07:45:20;;;;;;;7.95;2.00;;;;;;;21.38;41.16;94293.59;5145347;27;20136;-78
2023/06/06 07:47:46;;;;;;;4.30;1.83;;;;;;;21.15;41.27;94282.13;5145433;27;20046;-80
2023/06/06 07:50:12;;;;;;;7.68;2.25;;;;;;;21.16;42.30;94283.66;5145375;27;20019;-79
2023/06/06 07:52:43;;;;;;;8.70;2.35;;;;;;;21.31;42.29;94287.31;5144426;27;20329;-79
2023/06/06 07:55:09;;;;;;;6.15;2.08;;;;;;;21.42;42.53;94289.00;5144279;27;20019;-79
2023/06/06 07:57:34;;;;;;;16.67;1.90;;;;;;;21.52;41.77;94290.28;5127037;27;20026;-75
2023/06/06 08:00:00;;;;;;;9.02;2.20;;;;;;;21.59;42.88;94292.28;5145158;27;20015;-77
2023/06/06 08:02:26;;;;;;;11.70;2.10;;;;;;;21.68;41.38;94287.34;5145098;27;20102;-77
2023/06/06 08:04:52;;;;;;;4.88;1.67;;;;;;;21.70;40.58;94287.75;5145155;27;20015;-78
2023/06/06 08:07:18;;;;;;;10.18;2.53;;;;;;;21.77;41.11;94287.03;5145040;27;20015;-78
2023/06/06 08:09:43;;;;;;;5.40;2.60;;;;;;;21.79;41.86;94284.72;5144950;27;20022;-78
2023/06/06 08:12:10;;;;;;;5.80;2.03;;;;;;;21.80;40.98;94291.72;5145188;27;20051;-80
2023/06/06 08:14:36;;;;;;;6.30;3.00;;;;;;;21.73;40.91;94295.13;5145117;27;20011;-78
2023/06/06 08:17:06;;;;;;;9.95;2.03;;;;;;;21.74;41.10;94293.97;5144852;27;20317;-78
2023/06/06 08:19:32;;;;;;;4.45;1.92;;;;;;;21.56;41.23;94293.03;5144859;27;20024;-77
2023/06/06 08:21:57;;;;;;;17.15;1.92;;;;;;;21.68;41.75;94289.28;5126198;27;20057;-77
2023/06/06 08:24:23;;;;;;;6.35;2.22;;;;;;;21.76;40.85;94286.25;5144433;27;20042;-78
2023/06/06 08:26:48;;;;;;;6.07;1.77;;;;;;;21.51;40.32;94287.94;5126382;27;20026;-79
2023/06/06 08:29:14;;;;;;;14.75;2.28;;;;;;;21.57;41.14;94292.63;5144575;27;20026;-79
2023/06/06 08:31:40;;;;;;;4.72;1.73;;;;;;;21.62;40.71;94281.47;5144647;27;20124;-80
2023/06/06 08:34:06;;;;;;;5.68;1.92;;;;;;;21.60;40.61;94289.19;5126243;27;20109;-80
2023/06/06 08:36:32;;;;;;;10.45;2.33;;;;;;;21.57;40.13;94278.31;5144682;27;20027;-77
2023/06/06 08:38:58;;;;;;;6.35;2.38;;;;;;;21.46;40.33;94283.63;5144604;27;20259;-76
2023/06/06 08:41:25;;;;;;;3.03;1.67;;;;;;;21.24;42.10;94277.16;5144422;27;20048;-76
2023/06/06 08:43:53;;;;;;;3.60;1.75;;;;;;;21.32;41.58;94276.09;5144317;27;20015;-77
2023/06/06 08:46:19;;;;;;;4.20;1.60;;;;;;;21.48;41.25;94278.63;5125958;28;20354;-77
2023/06/06 08:48:46;;;;;;;9.23;2.20;;;;;;;21.60;41.19;94274.88;5144419;27;20060;-77
2023/06/06 08:51:12;;;;;;;6.00;1.90;;;;;;;21.67;43.07;94271.44;5144247;27;20011;-77
2023/06/06 08:53:38;;;;;;;7.25;2.08;;;;;;;21.79;40.96;94274.63;5144533;27;20313;-78
2023/06/06 08:56:07;;;;;;;10.02;2.33;;;;;;;21.92;41.44;94271.63;5144191;27;20026;-77
2023/06/06 08:58:34;;;;;;;6.85;2.33;;;;;;;21.99;39.55;94271.72;5144020;27;20075;-78
2023/06/06 09:01:01;;;;;;;10.15;2.40;;;;;;;21.93;40.72;94267.78;5144148;27;20027;-78
2023/06/06 09:03:31;;;;;;;3.78;2.05;;;;;;;21.70;42.26;94260.63;5144132;27;20038;-76
2023/06/06 09:05:59;;;;;;;7.38;2.00;;;;;;;21.68;42.26;94267.56;5143882;27;20019;-77
2023/06/06 09:08:25;;;;;;;5.60;2.35;;;;;;;21.81;40.59;94266.13;5144047;27;20052;-76
2023/06/06 09:10:51;;;;;;;6.30;2.10;;;;;;;21.94;41.06;94258.47;5143883;27;20082;-77
2023/06/06 09:13:16;;;;;;;5.32;2.25;;;;;;;22.07;42.52;94254.31;5144118;27;20023;-77
2023/06/06 09:15:44;;;;;;;11.88;2.20;;;;;;;22.19;41.22;94247.81;5144135;27;20014;-77
2023/06/06 09:18:10;;;;;;;11.95;2.30;;;;;;;22.35;42.64;94247.56;5144198;27;20064;-77
2023/06/06 09:20:35;;;;;;;9.15;2.20;;;;;;;22.55;43.38;94251.56;5143910;28;20241;-77
2023/06/06 09:23:02;;;;;;;4.35;2.10;;;;;;;22.64;41.03;94240.34;5125491;28;20066;-77
2023/06/06 09:25:28;;;;;;;10.40;2.08;;;;;;;22.57;40.44;94246.53;5143745;28;20019;-77
2023/06/06 09:28:03;;;;;;;7.57;2.17;;;;;;;22.62;40.47;94254.31;5144082;28;20019;-80
2023/06/06 09:30:32;;;;;;;10.30;2.90;;;;;;;22.68;41.10;94251.25;5125430;28;20029;-80
2023/06/06 09:33:04;;;;;;;5.63;1.88;;;;;;;22.84;41.71;94249.00;5143888;28;20027;-80
2023/06/06 09:35:34;;;;;;;4.97;1.98;;;;;;;22.96;39.92;94250.56;5125369;28;20046;-80
2023/06/06 09:38:06;;;;;;;7.05;2.65;;;;;;;23.08;40.39;94250.28;5125069;28;20034;-80
2023/06/06 09:40:33;;;;;;;8.70;2.47;;;;;;;23.15;39.92;94246.81;5143701;28;20209;-80
2023/06/06 09:42:58;;;;;;;11.07;2.58;;;;;;;23.29;41.41;94243.34;5143741;28;20031;-79
2023/06/06 09:45:24;;;;;;;7.10;2.25;;;;;;;23.36;39.64;94235.19;5143204;28;20015;-80
2023/06/06 09:47:50;;;;;;;13.63;2.90;;;;;;;23.47;40.64;94229.75;5143630;28;20022;-82
2023/06/06 09:50:18;;;;;;;12.23;2.65;;;;;;;23.39;39.90;94237.94;5125369;28;20015;-81
2023/06/06 09:52:44;;;;;;;11.55;2.65;;;;;;;23.60;39.62;94226.28;5143599;28;20035;-81
2023/06/06 09:55:12;;;;;;;3.92;2.45;;;;;;;23.60;40.39;94220.84;5143763;28;20030;-82
2023/06/06 09:57:40;;;;;;;9.40;2.83;;;;;;;23.82;41.44;94227.13;5143706;28;20027;-80
2023/06/06 10:00:10;;;;;;;5.03;2.13;;;;;;;24.12;41.07;94225.94;5144000;28;20284;-80
2023/06/06 10:02:42;;;;;;;8.40;2.30;;;;;;;24.30;39.98;94214.22;5143522;28;20239;-77
2023/06/06 10:05:08;;;;;;;;;;;;;;;24.55;39.70;94215.00;5143978;28;20043;-77
2023/06/06 10:07:33;;;;;;;7.68;2.40;;;;;;;24.70;39.05;94214.94;5143339;28;19934;-76
2023/06/06 10:09:59;;;;;;;7.00;2.40;;;;;;;24.82;39.24;94204.38;5143428;28;20061;-75
2023/06/06 10:12:29;;;;;;;5.53;2.15;;;;;;;25.06;38.72;94212.09;5143370;28;20019;-77
2023/06/06 10:14:55;;;;;;;8.48;2.53;;;;;;;25.13;37.79;94209.31;5143248;28;20117;-76
2023/06/06 10:17:23;;;;;;;4.25;2.25;;;;;;;25.02;37.97;94193.00;5143260;27;20023;-77
2023/06/06 10:19:52;;;;;;;6.18;2.10;;;;;;;24.56;38.11;94208.34;5146265;27;20056;-77
2023/06/06 10:22:17;;;;;;;6.85;2.30;;;;;;;24.55;39.00;94198.66;5146923;27;20019;-77
2023/06/06 10:24:43;;;;;;;10.23;2.67;;;;;;;24.85;39.54;94202.81;5147084;27;20115;-77
2023/06/06 10:27:21;;;;;;;7.30;2.33;;;;;;;25.18;38.76;94195.25;5128595;27;20321;-77
2023/06/06 10:29:59;;;;;;;10.88;2.45;;;;;;;25.12;38.13;94188.69;5146806;27;20065;-75
2023/06/06 10:32:53;;;;;;;7.75;3.88;;;;;;;25.28;38.19;94190.94;5146863;27;20209;-76
2023/06/06 10:35:20;;;;;;;7.85;2.53;;;;;;;25.26;37.53;94188.63;5147215;27;20023;-79
2023/06/06 10:38:06;;;;;;;8.77;2.30;;;;;;;25.46;39.65;94190.81;5146689;27;20030;-78
2023/06/06 10:40:58;;;;;;;7.25;2.40;;;;;;;25.68;38.92;94188.72;5146679;27;20019;-78
2023/06/06 10:43:32;;;;;;;5.70;2.08;;;;;;;25.96;36.74;94185.78;5146563;27;20064;-78
2023/06/06 10:45:59;;;;;;;3.58;1.75;;;;;;;26.11;37.01;94183.69;5146619;27;20026;-78
2023/06/06 10:48:38;;;;;;;5.20;2.17;;;;;;;26.15;34.90;94178.97;5128260;27;20019;-78
2023/06/06 10:51:05;;;;;;;5.95;2.35;;;;;;;26.13;35.92;94167.66;5146537;27;20019;-77
2023/06/06 10:53:31;;;;;;;6.80;2.70;;;;;;;26.11;35.25;94167.28;5146664;27;20023;-78
2023/06/06 10:55:57;;;;;;;5.78;2.70;;;;;;;26.10;35.89;94167.72;5146448;27;20078;-80
2023/06/06 10:58:33;;;;;;;6.60;2.30;;;;;;;26.11;35.67;94164.56;5146470;27;20019;-78
2023/06/06 11:01:03;;;;;;;5.93;2.30;;;;;;;26.31;36.12;94163.97;5146173;27;20354;-77
2023/06/06 11:03:39;;;;;;;6.47;2.38;;;;;;;26.49;35.93;94147.41;5146525;27;20083;-78
2023/06/06 11:06:13;;;;;;;14.77;3.30;;;;;;;26.56;35.66;94147.31;5146042;27;20029;-77
2023/06/06 11:08:57;;;;;;;15.80;2.95;;;;;;;26.79;35.72;94143.94;5146269;27;20098;-77
2023/06/06 11:11:25;;;;;;;4.75;2.47;;;;;;;26.89;34.99;94137.56;5146196;27;20022;-76
2023/06/06 11:14:00;;;;;;;8.98;2.47;;;;;;;27.05;34.54;94136.16;5127735;27;20023;-79
2023/06/06 11:16:38;;;;;;;6.63;2.22;;;;;;;27.30;33.44;94144.06;5127515;27;20026;-76
2023/06/06 11:19:08;;;;;;;7.72;2.42;;;;;;;27.36;32.91;94132.22;5145828;27;20207;-77
2023/06/06 11:21:38;;;;;;;7.18;2.67;;;;;;;27.45;32.85;94122.72;5127360;27;20027;-79
2023/06/06 11:24:05;;;;;;;6.15;2.15;;;;;;;27.54;33.51;94122.94;5145440;27;20051;-81
2023/06/06 11:26:33;;;;;;;7.10;2.60;;;;;;;27.68;32.86;94120.00;5145656;27;20091;-80
2023/06/06 11:29:00;;;;;;;7.93;2.13;;;;;;;27.87;32.39;94120.50;5145325;27;20080;-80
2023/06/06 11:31:26;;;;;;;5.05;2.65;;;;;;;28.04;31.37;94118.63;5145595;27;20042;-81